sensor_id;sensor_type;location;lat;lon;timestamp;P1;durP1;ratioP1;P2;durP2;ratioP2
11854;SDS011;5987;53.140;8.904;2024-01-11T00:00:24;45.73;;;21.03;;
11854;SDS011;5987;53.140;8.904;2024-01-11T00:03:30;48.40;;;20.37;;
11854;SDS011;5987;53.140;8.904;2024-01-11T00:06:39;40.90;;;21.53;;
11854;SDS011;5987;53.140;8.904;2024-01-11T00:09:44;44.93;;;22.27;;
11854;SDS011;5987;53.140;8.904;2024-01-11T00:12:48;41.50;;;19.43;;
11854;SDS011;5987;53.140;8.904;2024-01-11T00:15:52;48.47;;;22.10;;
11854;SDS011;5987;53.140;8.904;2024-01-11T00:18:58;47.70;;;22.83;;
11854;SDS011;5987;53.140;8.904;2024-01-11T00:22:03;40.30;;;20.70;;
11854;SDS011;5987;53.140;8.904;2024-01-11T00:25:07;50.70;;;23.60;;
11854;SDS011;5987;53.140;8.904;2024-01-11T00:28:11;45.60;;;19.90;;
11854;SDS011;5987;53.140;8.904;2024-01-11T00:31:15;51.03;;;24.03;;
11854;SDS011;5987;53.140;8.904;2024-01-11T00:34:21;55.53;;;24.57;;
11854;SDS011;5987;53.140;8.904;2024-01-11T00:37:24;45.17;;;22.10;;
11854;SDS011;5987;53.140;8.904;2024-01-11T00:40:28;49.27;;;23.10;;
11854;SDS011;5987;53.140;8.904;2024-01-11T00:43:32;54.53;;;23.93;;
11854;SDS011;5987;53.140;8.904;2024-01-11T00:46:36;58.10;;;25.70;;
11854;SDS011;5987;53.140;8.904;2024-01-11T00:49:41;54.80;;;23.80;;
11854;SDS011;5987;53.140;8.904;2024-01-11T00:52:45;56.87;;;23.10;;
11854;SDS011;5987;53.140;8.904;2024-01-11T00:55:49;54.87;;;23.87;;
11854;SDS011;5987;53.140;8.904;2024-01-11T00:58:54;58.27;;;26.60;;
11854;SDS011;5987;53.140;8.904;2024-01-11T01:01:57;52.57;;;22.83;;
11854;SDS011;5987;53.140;8.904;2024-01-11T01:05:03;57.33;;;24.67;;
11854;SDS011;5987;53.140;8.904;2024-01-11T01:08:07;53.63;;;25.13;;
11854;SDS011;5987;53.140;8.904;2024-01-11T01:11:11;47.70;;;23.40;;
11854;SDS011;5987;53.140;8.904;2024-01-11T01:14:15;52.10;;;25.50;;
11854;SDS011;5987;53.140;8.904;2024-01-11T01:17:19;50.50;;;23.17;;
11854;SDS011;5987;53.140;8.904;2024-01-11T01:20:24;58.40;;;23.90;;
11854;SDS011;5987;53.140;8.904;2024-01-11T01:23:29;50.17;;;23.70;;
11854;SDS011;5987;53.140;8.904;2024-01-11T01:26:33;44.33;;;21.97;;
11854;SDS011;5987;53.140;8.904;2024-01-11T01:29:37;54.20;;;24.53;;
11854;SDS011;5987;53.140;8.904;2024-01-11T01:32:41;58.53;;;25.53;;
11854;SDS011;5987;53.140;8.904;2024-01-11T01:35:46;59.50;;;24.57;;
11854;SDS011;5987;53.140;8.904;2024-01-11T01:38:50;44.00;;;21.30;;
11854;SDS011;5987;53.140;8.904;2024-01-11T01:41:54;48.57;;;21.43;;
11854;SDS011;5987;53.140;8.904;2024-01-11T01:44:58;50.83;;;22.70;;
11854;SDS011;5987;53.140;8.904;2024-01-11T01:48:02;58.20;;;24.30;;
11854;SDS011;5987;53.140;8.904;2024-01-11T01:51:08;60.00;;;24.33;;
11854;SDS011;5987;53.140;8.904;2024-01-11T01:54:12;54.03;;;23.70;;
11854;SDS011;5987;53.140;8.904;2024-01-11T01:57:16;59.87;;;25.60;;
11854;SDS011;5987;53.140;8.904;2024-01-11T02:00:23;43.43;;;20.83;;
11854;SDS011;5987;53.140;8.904;2024-01-11T02:03:27;52.70;;;23.67;;
11854;SDS011;5987;53.140;8.904;2024-01-11T02:06:34;51.83;;;24.07;;
11854;SDS011;5987;53.140;8.904;2024-01-11T02:09:39;53.43;;;23.53;;
11854;SDS011;5987;53.140;8.904;2024-01-11T02:12:43;51.63;;;22.33;;
11854;SDS011;5987;53.140;8.904;2024-01-11T02:15:48;46.67;;;21.83;;
11854;SDS011;5987;53.140;8.904;2024-01-11T02:18:52;51.37;;;22.03;;
11854;SDS011;5987;53.140;8.904;2024-01-11T02:21:58;52.27;;;22.50;;
11854;SDS011;5987;53.140;8.904;2024-01-11T02:25:16;55.33;;;23.50;;
11854;SDS011;5987;53.140;8.904;2024-01-11T02:28:20;48.23;;;21.33;;
11854;SDS011;5987;53.140;8.904;2024-01-11T02:31:24;51.63;;;23.73;;
11854;SDS011;5987;53.140;8.904;2024-01-11T02:34:28;53.10;;;23.73;;
11854;SDS011;5987;53.140;8.904;2024-01-11T02:37:33;52.47;;;23.07;;
11854;SDS011;5987;53.140;8.904;2024-01-11T02:40:38;49.90;;;22.63;;
11854;SDS011;5987;53.140;8.904;2024-01-11T02:43:46;60.27;;;23.40;;
11854;SDS011;5987;53.140;8.904;2024-01-11T02:46:51;57.80;;;23.80;;
11854;SDS011;5987;53.140;8.904;2024-01-11T02:49:55;54.40;;;24.03;;
11854;SDS011;5987;53.140;8.904;2024-01-11T02:52:59;54.97;;;23.00;;
11854;SDS011;5987;53.140;8.904;2024-01-11T02:56:04;54.83;;;23.73;;
11854;SDS011;5987;53.140;8.904;2024-01-11T02:59:08;48.90;;;22.43;;
11854;SDS011;5987;53.140;8.904;2024-01-11T03:02:12;52.30;;;24.37;;
11854;SDS011;5987;53.140;8.904;2024-01-11T03:05:16;54.70;;;24.23;;
11854;SDS011;5987;53.140;8.904;2024-01-11T03:08:20;54.20;;;24.50;;
11854;SDS011;5987;53.140;8.904;2024-01-11T03:11:25;56.87;;;23.67;;
11854;SDS011;5987;53.140;8.904;2024-01-11T03:14:29;51.53;;;24.57;;
11854;SDS011;5987;53.140;8.904;2024-01-11T03:17:33;45.17;;;20.80;;
11854;SDS011;5987;53.140;8.904;2024-01-11T03:20:38;59.60;;;23.27;;
11854;SDS011;5987;53.140;8.904;2024-01-11T03:23:42;53.03;;;22.73;;
11854;SDS011;5987;53.140;8.904;2024-01-11T03:26:47;55.93;;;21.50;;
11854;SDS011;5987;53.140;8.904;2024-01-11T03:29:51;48.60;;;21.67;;
11854;SDS011;5987;53.140;8.904;2024-01-11T03:32:55;43.93;;;20.03;;
11854;SDS011;5987;53.140;8.904;2024-01-11T03:35:59;52.67;;;22.57;;
11854;SDS011;5987;53.140;8.904;2024-01-11T03:39:09;52.40;;;23.27;;
11854;SDS011;5987;53.140;8.904;2024-01-11T03:42:14;44.67;;;20.20;;
11854;SDS011;5987;53.140;8.904;2024-01-11T03:45:18;48.87;;;22.13;;
11854;SDS011;5987;53.140;8.904;2024-01-11T03:48:22;50.90;;;23.10;;
11854;SDS011;5987;53.140;8.904;2024-01-11T03:51:26;54.77;;;23.13;;
11854;SDS011;5987;53.140;8.904;2024-01-11T03:54:30;60.17;;;26.43;;
11854;SDS011;5987;53.140;8.904;2024-01-11T03:57:35;55.07;;;23.30;;
11854;SDS011;5987;53.140;8.904;2024-01-11T04:00:39;57.97;;;22.83;;
11854;SDS011;5987;53.140;8.904;2024-01-11T04:03:43;52.13;;;22.50;;
11854;SDS011;5987;53.140;8.904;2024-01-11T04:06:47;59.73;;;24.83;;
11854;SDS011;5987;53.140;8.904;2024-01-11T04:09:51;63.57;;;25.83;;
11854;SDS011;5987;53.140;8.904;2024-01-11T04:12:56;57.00;;;24.93;;
11854;SDS011;5987;53.140;8.904;2024-01-11T04:16:03;59.83;;;23.37;;
11854;SDS011;5987;53.140;8.904;2024-01-11T04:19:08;60.33;;;22.83;;
11854;SDS011;5987;53.140;8.904;2024-01-11T04:22:12;52.57;;;22.07;;
11854;SDS011;5987;53.140;8.904;2024-01-11T04:25:16;42.60;;;19.37;;
11854;SDS011;5987;53.140;8.904;2024-01-11T04:28:21;47.73;;;20.80;;
11854;SDS011;5987;53.140;8.904;2024-01-11T04:31:25;42.63;;;18.27;;
11854;SDS011;5987;53.140;8.904;2024-01-11T04:34:29;47.67;;;19.23;;
11854;SDS011;5987;53.140;8.904;2024-01-11T04:37:33;38.60;;;17.03;;
11854;SDS011;5987;53.140;8.904;2024-01-11T04:40:38;40.43;;;18.97;;
11854;SDS011;5987;53.140;8.904;2024-01-11T04:43:43;48.10;;;19.67;;
11854;SDS011;5987;53.140;8.904;2024-01-11T04:46:48;46.27;;;19.57;;
11854;SDS011;5987;53.140;8.904;2024-01-11T04:49:52;44.67;;;19.10;;
11854;SDS011;5987;53.140;8.904;2024-01-11T04:52:55;39.47;;;18.33;;
11854;SDS011;5987;53.140;8.904;2024-01-11T04:55:59;35.70;;;17.00;;
11854;SDS011;5987;53.140;8.904;2024-01-11T04:59:04;42.73;;;19.20;;
11854;SDS011;5987;53.140;8.904;2024-01-11T05:02:08;45.13;;;18.83;;
11854;SDS011;5987;53.140;8.904;2024-01-11T05:05:13;42.70;;;17.83;;
11854;SDS011;5987;53.140;8.904;2024-01-11T05:08:17;46.90;;;18.40;;
11854;SDS011;5987;53.140;8.904;2024-01-11T05:11:21;42.50;;;17.87;;
11854;SDS011;5987;53.140;8.904;2024-01-11T05:14:29;51.83;;;20.83;;
11854;SDS011;5987;53.140;8.904;2024-01-11T05:17:33;42.20;;;19.50;;
11854;SDS011;5987;53.140;8.904;2024-01-11T05:20:37;49.57;;;19.33;;
11854;SDS011;5987;53.140;8.904;2024-01-11T05:23:42;42.97;;;17.10;;
11854;SDS011;5987;53.140;8.904;2024-01-11T05:26:46;45.13;;;19.10;;
11854;SDS011;5987;53.140;8.904;2024-01-11T05:29:51;50.23;;;21.43;;
11854;SDS011;5987;53.140;8.904;2024-01-11T05:32:55;50.60;;;20.43;;
11854;SDS011;5987;53.140;8.904;2024-01-11T05:35:59;39.67;;;18.57;;
11854;SDS011;5987;53.140;8.904;2024-01-11T05:39:04;53.83;;;21.67;;
11854;SDS011;5987;53.140;8.904;2024-01-11T05:42:08;51.40;;;20.53;;
11854;SDS011;5987;53.140;8.904;2024-01-11T05:45:13;47.20;;;20.60;;
11854;SDS011;5987;53.140;8.904;2024-01-11T05:48:22;49.03;;;19.50;;
11854;SDS011;5987;53.140;8.904;2024-01-11T05:51:26;55.87;;;21.40;;
11854;SDS011;5987;53.140;8.904;2024-01-11T05:54:30;61.47;;;24.23;;
11854;SDS011;5987;53.140;8.904;2024-01-11T05:57:34;53.53;;;21.30;;
11854;SDS011;5987;53.140;8.904;2024-01-11T06:00:39;45.53;;;21.93;;
11854;SDS011;5987;53.140;8.904;2024-01-11T06:03:44;49.37;;;20.83;;
11854;SDS011;5987;53.140;8.904;2024-01-11T06:06:47;44.43;;;21.43;;
11854;SDS011;5987;53.140;8.904;2024-01-11T06:09:51;47.40;;;23.47;;
11854;SDS011;5987;53.140;8.904;2024-01-11T06:12:55;51.03;;;20.40;;
11854;SDS011;5987;53.140;8.904;2024-01-11T06:16:00;58.37;;;23.07;;
11854;SDS011;5987;53.140;8.904;2024-01-11T06:19:04;52.33;;;21.53;;
11854;SDS011;5987;53.140;8.904;2024-01-11T06:22:09;46.90;;;22.33;;
11854;SDS011;5987;53.140;8.904;2024-01-11T06:25:13;54.10;;;22.50;;
11854;SDS011;5987;53.140;8.904;2024-01-11T06:28:17;53.03;;;20.67;;
11854;SDS011;5987;53.140;8.904;2024-01-11T06:31:23;54.20;;;21.47;;
11854;SDS011;5987;53.140;8.904;2024-01-11T06:34:27;52.73;;;22.07;;
11854;SDS011;5987;53.140;8.904;2024-01-11T06:37:31;48.77;;;22.60;;
11854;SDS011;5987;53.140;8.904;2024-01-11T06:40:35;54.80;;;22.23;;
11854;SDS011;5987;53.140;8.904;2024-01-11T06:43:39;60.90;;;23.37;;
11854;SDS011;5987;53.140;8.904;2024-01-11T06:46:44;54.93;;;24.00;;
11854;SDS011;5987;53.140;8.904;2024-01-11T06:49:48;53.20;;;22.57;;
11854;SDS011;5987;53.140;8.904;2024-01-11T06:52:52;58.57;;;23.47;;
11854;SDS011;5987;53.140;8.904;2024-01-11T06:55:56;54.47;;;22.23;;
11854;SDS011;5987;53.140;8.904;2024-01-11T06:58:59;61.00;;;23.43;;
11854;SDS011;5987;53.140;8.904;2024-01-11T07:02:05;59.87;;;23.10;;
11854;SDS011;5987;53.140;8.904;2024-01-11T07:05:09;57.73;;;23.40;;
11854;SDS011;5987;53.140;8.904;2024-01-11T07:08:14;55.43;;;24.87;;
11854;SDS011;5987;53.140;8.904;2024-01-11T07:11:18;54.70;;;23.70;;
11854;SDS011;5987;53.140;8.904;2024-01-11T07:14:22;55.90;;;22.40;;
11854;SDS011;5987;53.140;8.904;2024-01-11T07:17:27;63.90;;;23.27;;
11854;SDS011;5987;53.140;8.904;2024-01-11T07:20:31;59.23;;;23.73;;
11854;SDS011;5987;53.140;8.904;2024-01-11T07:23:35;74.30;;;25.83;;
11854;SDS011;5987;53.140;8.904;2024-01-11T07:26:39;66.37;;;23.97;;
11854;SDS011;5987;53.140;8.904;2024-01-11T07:29:43;61.80;;;25.73;;
11854;SDS011;5987;53.140;8.904;2024-01-11T07:32:48;69.93;;;26.67;;
11854;SDS011;5987;53.140;8.904;2024-01-11T07:35:53;92.20;;;31.77;;
11854;SDS011;5987;53.140;8.904;2024-01-11T07:38:57;78.20;;;32.27;;
11854;SDS011;5987;53.140;8.904;2024-01-11T07:42:01;70.93;;;26.67;;
11854;SDS011;5987;53.140;8.904;2024-01-11T07:45:07;78.50;;;30.23;;
11854;SDS011;5987;53.140;8.904;2024-01-11T07:48:13;66.13;;;24.67;;
11854;SDS011;5987;53.140;8.904;2024-01-11T07:51:17;66.83;;;25.53;;
11854;SDS011;5987;53.140;8.904;2024-01-11T07:54:21;71.23;;;27.93;;
11854;SDS011;5987;53.140;8.904;2024-01-11T07:57:25;78.80;;;28.83;;
11854;SDS011;5987;53.140;8.904;2024-01-11T08:00:29;67.67;;;26.40;;
11854;SDS011;5987;53.140;8.904;2024-01-11T08:03:34;64.50;;;26.50;;
11854;SDS011;5987;53.140;8.904;2024-01-11T08:06:38;74.27;;;27.13;;
11854;SDS011;5987;53.140;8.904;2024-01-11T08:09:42;88.10;;;29.17;;
11854;SDS011;5987;53.140;8.904;2024-01-11T08:12:47;88.27;;;30.17;;
11854;SDS011;5987;53.140;8.904;2024-01-11T08:15:52;79.17;;;28.97;;
11854;SDS011;5987;53.140;8.904;2024-01-11T08:18:57;76.80;;;27.33;;
11854;SDS011;5987;53.140;8.904;2024-01-11T08:22:03;72.13;;;29.37;;
11854;SDS011;5987;53.140;8.904;2024-01-11T08:25:07;97.67;;;28.73;;
11854;SDS011;5987;53.140;8.904;2024-01-11T08:28:11;83.50;;;29.33;;
11854;SDS011;5987;53.140;8.904;2024-01-11T08:31:15;87.53;;;30.63;;
11854;SDS011;5987;53.140;8.904;2024-01-11T08:34:20;85.77;;;26.07;;
11854;SDS011;5987;53.140;8.904;2024-01-11T08:37:24;92.73;;;29.77;;
11854;SDS011;5987;53.140;8.904;2024-01-11T08:40:28;80.47;;;29.17;;
11854;SDS011;5987;53.140;8.904;2024-01-11T08:43:32;85.60;;;27.63;;
11854;SDS011;5987;53.140;8.904;2024-01-11T08:46:36;67.70;;;26.17;;
11854;SDS011;5987;53.140;8.904;2024-01-11T08:49:41;74.77;;;28.77;;
11854;SDS011;5987;53.140;8.904;2024-01-11T08:52:45;84.70;;;26.73;;
11854;SDS011;5987;53.140;8.904;2024-01-11T08:55:49;89.27;;;29.53;;
11854;SDS011;5987;53.140;8.904;2024-01-11T08:58:52;75.67;;;26.00;;
11854;SDS011;5987;53.140;8.904;2024-01-11T09:01:56;79.17;;;27.27;;
11854;SDS011;5987;53.140;8.904;2024-01-11T09:05:17;87.03;;;28.07;;
11854;SDS011;5987;53.140;8.904;2024-01-11T09:08:21;79.47;;;26.37;;
11854;SDS011;5987;53.140;8.904;2024-01-11T09:11:25;84.17;;;28.97;;
11854;SDS011;5987;53.140;8.904;2024-01-11T09:14:29;87.87;;;30.00;;
11854;SDS011;5987;53.140;8.904;2024-01-11T09:17:32;77.97;;;29.30;;
11854;SDS011;5987;53.140;8.904;2024-01-11T09:20:38;96.17;;;28.63;;
11854;SDS011;5987;53.140;8.904;2024-01-11T09:23:42;79.70;;;26.13;;
11854;SDS011;5987;53.140;8.904;2024-01-11T09:26:46;88.43;;;29.90;;
11854;SDS011;5987;53.140;8.904;2024-01-11T09:29:51;89.67;;;29.30;;
11854;SDS011;5987;53.140;8.904;2024-01-11T09:32:57;75.20;;;28.07;;
11854;SDS011;5987;53.140;8.904;2024-01-11T09:36:03;88.43;;;29.53;;
11854;SDS011;5987;53.140;8.904;2024-01-11T09:39:08;84.13;;;28.27;;
11854;SDS011;5987;53.140;8.904;2024-01-11T09:42:14;71.37;;;27.70;;
11854;SDS011;5987;53.140;8.904;2024-01-11T09:45:21;83.30;;;29.97;;
11854;SDS011;5987;53.140;8.904;2024-01-11T09:48:25;76.83;;;28.80;;
11854;SDS011;5987;53.140;8.904;2024-01-11T09:51:31;79.60;;;26.33;;
11854;SDS011;5987;53.140;8.904;2024-01-11T09:54:40;80.67;;;29.07;;
11854;SDS011;5987;53.140;8.904;2024-01-11T09:57:45;82.27;;;27.83;;
11854;SDS011;5987;53.140;8.904;2024-01-11T10:00:51;72.27;;;27.33;;
11854;SDS011;5987;53.140;8.904;2024-01-11T10:04:01;74.90;;;27.17;;
11854;SDS011;5987;53.140;8.904;2024-01-11T10:07:07;66.30;;;24.70;;
11854;SDS011;5987;53.140;8.904;2024-01-11T10:10:12;84.17;;;27.20;;
11854;SDS011;5987;53.140;8.904;2024-01-11T10:13:18;85.13;;;24.87;;
11854;SDS011;5987;53.140;8.904;2024-01-11T10:16:28;74.43;;;25.80;;
11854;SDS011;5987;53.140;8.904;2024-01-11T10:19:32;76.67;;;26.77;;
11854;SDS011;5987;53.140;8.904;2024-01-11T10:22:37;65.10;;;23.97;;
11854;SDS011;5987;53.140;8.904;2024-01-11T10:25:44;62.53;;;23.87;;
11854;SDS011;5987;53.140;8.904;2024-01-11T10:28:48;72.77;;;24.27;;
11854;SDS011;5987;53.140;8.904;2024-01-11T10:31:51;67.97;;;24.87;;
11854;SDS011;5987;53.140;8.904;2024-01-11T10:34:55;70.07;;;26.90;;
11854;SDS011;5987;53.140;8.904;2024-01-11T10:38:00;61.17;;;26.90;;
11854;SDS011;5987;53.140;8.904;2024-01-11T10:41:12;68.63;;;24.97;;
11854;SDS011;5987;53.140;8.904;2024-01-11T10:44:22;70.17;;;26.23;;
11854;SDS011;5987;53.140;8.904;2024-01-11T10:47:32;70.27;;;26.40;;
11854;SDS011;5987;53.140;8.904;2024-01-11T10:50:41;63.17;;;25.07;;
11854;SDS011;5987;53.140;8.904;2024-01-11T10:53:50;65.83;;;22.00;;
11854;SDS011;5987;53.140;8.904;2024-01-11T10:56:58;64.40;;;24.53;;
11854;SDS011;5987;53.140;8.904;2024-01-11T11:00:03;68.17;;;22.57;;
11854;SDS011;5987;53.140;8.904;2024-01-11T11:03:13;72.80;;;25.27;;
11854;SDS011;5987;53.140;8.904;2024-01-11T11:06:20;58.97;;;21.50;;
11854;SDS011;5987;53.140;8.904;2024-01-11T11:09:30;62.87;;;24.17;;
11854;SDS011;5987;53.140;8.904;2024-01-11T11:12:37;57.73;;;22.07;;
11854;SDS011;5987;53.140;8.904;2024-01-11T11:15:44;62.97;;;23.93;;
11854;SDS011;5987;53.140;8.904;2024-01-11T11:18:51;80.73;;;24.43;;
11854;SDS011;5987;53.140;8.904;2024-01-11T11:21:57;56.47;;;21.03;;
11854;SDS011;5987;53.140;8.904;2024-01-11T11:25:05;58.00;;;23.00;;
11854;SDS011;5987;53.140;8.904;2024-01-11T11:28:12;53.57;;;20.67;;
11854;SDS011;5987;53.140;8.904;2024-01-11T11:34:39;64.13;;;24.07;;
11854;SDS011;5987;53.140;8.904;2024-01-11T11:37:46;59.17;;;23.93;;
11854;SDS011;5987;53.140;8.904;2024-01-11T11:40:53;63.20;;;22.37;;
11854;SDS011;5987;53.140;8.904;2024-01-11T11:44:02;49.67;;;21.30;;
11854;SDS011;5987;53.140;8.904;2024-01-11T11:47:18;53.00;;;20.67;;
11854;SDS011;5987;53.140;8.904;2024-01-11T11:50:24;50.83;;;20.60;;
11854;SDS011;5987;53.140;8.904;2024-01-11T11:53:30;60.67;;;23.07;;
11854;SDS011;5987;53.140;8.904;2024-01-11T11:56:38;52.80;;;19.93;;
11854;SDS011;5987;53.140;8.904;2024-01-11T11:59:42;56.33;;;21.03;;
11854;SDS011;5987;53.140;8.904;2024-01-11T12:02:47;61.27;;;23.20;;
11854;SDS011;5987;53.140;8.904;2024-01-11T12:05:53;62.03;;;23.00;;
11854;SDS011;5987;53.140;8.904;2024-01-11T12:08:57;49.83;;;20.07;;
11854;SDS011;5987;53.140;8.904;2024-01-11T12:12:03;61.03;;;22.17;;
11854;SDS011;5987;53.140;8.904;2024-01-11T12:15:36;56.17;;;21.60;;
11854;SDS011;5987;53.140;8.904;2024-01-11T12:18:40;49.90;;;19.03;;
11854;SDS011;5987;53.140;8.904;2024-01-11T12:21:45;52.30;;;21.23;;
11854;SDS011;5987;53.140;8.904;2024-01-11T12:24:48;57.67;;;22.60;;
11854;SDS011;5987;53.140;8.904;2024-01-11T12:27:54;56.77;;;22.17;;
11854;SDS011;5987;53.140;8.904;2024-01-11T12:30:59;57.20;;;21.60;;
11854;SDS011;5987;53.140;8.904;2024-01-11T12:34:03;53.20;;;20.80;;
11854;SDS011;5987;53.140;8.904;2024-01-11T12:37:09;54.73;;;21.83;;
11854;SDS011;5987;53.140;8.904;2024-01-11T12:40:13;48.07;;;20.53;;
11854;SDS011;5987;53.140;8.904;2024-01-11T12:43:18;53.00;;;22.53;;
11854;SDS011;5987;53.140;8.904;2024-01-11T12:46:22;60.03;;;23.17;;
11854;SDS011;5987;53.140;8.904;2024-01-11T12:49:26;57.70;;;21.93;;
11854;SDS011;5987;53.140;8.904;2024-01-11T12:52:31;57.43;;;23.07;;
11854;SDS011;5987;53.140;8.904;2024-01-11T12:55:35;59.33;;;23.53;;
11854;SDS011;5987;53.140;8.904;2024-01-11T12:59:06;58.77;;;21.40;;
11854;SDS011;5987;53.140;8.904;2024-01-11T13:02:11;49.07;;;21.43;;
11854;SDS011;5987;53.140;8.904;2024-01-11T13:05:17;61.57;;;23.50;;
11854;SDS011;5987;53.140;8.904;2024-01-11T13:08:21;54.63;;;19.90;;
11854;SDS011;5987;53.140;8.904;2024-01-11T13:11:25;44.77;;;19.73;;
11854;SDS011;5987;53.140;8.904;2024-01-11T13:14:31;55.63;;;21.80;;
11854;SDS011;5987;53.140;8.904;2024-01-11T13:17:35;52.53;;;21.13;;
11854;SDS011;5987;53.140;8.904;2024-01-11T13:20:39;45.60;;;19.40;;
11854;SDS011;5987;53.140;8.904;2024-01-11T13:23:43;57.63;;;23.13;;
11854;SDS011;5987;53.140;8.904;2024-01-11T13:26:47;50.83;;;21.43;;
11854;SDS011;5987;53.140;8.904;2024-01-11T13:29:52;56.67;;;20.07;;
11854;SDS011;5987;53.140;8.904;2024-01-11T13:32:57;52.50;;;20.07;;
11854;SDS011;5987;53.140;8.904;2024-01-11T13:36:01;51.90;;;19.97;;
11854;SDS011;5987;53.140;8.904;2024-01-11T13:39:05;55.83;;;19.97;;
11854;SDS011;5987;53.140;8.904;2024-01-11T13:42:10;51.37;;;19.67;;
11854;SDS011;5987;53.140;8.904;2024-01-11T13:45:15;53.50;;;20.50;;
11854;SDS011;5987;53.140;8.904;2024-01-11T13:48:19;49.97;;;20.53;;
11854;SDS011;5987;53.140;8.904;2024-01-11T13:51:23;43.77;;;19.17;;
11854;SDS011;5987;53.140;8.904;2024-01-11T13:54:27;44.90;;;19.40;;
11854;SDS011;5987;53.140;8.904;2024-01-11T13:57:31;43.53;;;18.23;;
11854;SDS011;5987;53.140;8.904;2024-01-11T14:00:36;38.10;;;17.13;;
11854;SDS011;5987;53.140;8.904;2024-01-11T14:03:41;44.97;;;18.70;;
11854;SDS011;5987;53.140;8.904;2024-01-11T14:06:45;45.07;;;19.17;;
11854;SDS011;5987;53.140;8.904;2024-01-11T14:09:49;53.17;;;19.50;;
11854;SDS011;5987;53.140;8.904;2024-01-11T14:12:53;43.33;;;19.13;;
11854;SDS011;5987;53.140;8.904;2024-01-11T14:15:58;47.60;;;19.53;;
11854;SDS011;5987;53.140;8.904;2024-01-11T14:19:02;48.97;;;19.23;;
11854;SDS011;5987;53.140;8.904;2024-01-11T14:22:06;47.20;;;18.73;;
11854;SDS011;5987;53.140;8.904;2024-01-11T14:25:10;40.63;;;16.33;;
11854;SDS011;5987;53.140;8.904;2024-01-11T14:28:14;50.77;;;21.50;;
11854;SDS011;5987;53.140;8.904;2024-01-11T14:31:20;47.40;;;19.23;;
11854;SDS011;5987;53.140;8.904;2024-01-11T14:34:24;43.40;;;17.03;;
11854;SDS011;5987;53.140;8.904;2024-01-11T14:37:29;39.03;;;17.03;;
11854;SDS011;5987;53.140;8.904;2024-01-11T14:40:34;32.87;;;14.57;;
11854;SDS011;5987;53.140;8.904;2024-01-11T14:43:38;39.37;;;16.47;;
11854;SDS011;5987;53.140;8.904;2024-01-11T14:46:43;36.60;;;16.50;;
11854;SDS011;5987;53.140;8.904;2024-01-11T14:49:47;33.07;;;13.73;;
11854;SDS011;5987;53.140;8.904;2024-01-11T14:52:51;36.67;;;17.03;;
11854;SDS011;5987;53.140;8.904;2024-01-11T14:55:55;28.47;;;12.53;;
11854;SDS011;5987;53.140;8.904;2024-01-11T14:59:00;41.43;;;17.03;;
11854;SDS011;5987;53.140;8.904;2024-01-11T15:02:05;41.67;;;16.87;;
11854;SDS011;5987;53.140;8.904;2024-01-11T15:05:11;35.40;;;15.23;;
11854;SDS011;5987;53.140;8.904;2024-01-11T15:08:15;35.80;;;13.97;;
11854;SDS011;5987;53.140;8.904;2024-01-11T15:11:19;32.63;;;14.87;;
11854;SDS011;5987;53.140;8.904;2024-01-11T15:14:23;37.10;;;15.20;;
11854;SDS011;5987;53.140;8.904;2024-01-11T15:17:28;35.20;;;16.30;;
11854;SDS011;5987;53.140;8.904;2024-01-11T15:20:33;38.60;;;17.27;;
11854;SDS011;5987;53.140;8.904;2024-01-11T15:23:37;38.63;;;16.23;;
11854;SDS011;5987;53.140;8.904;2024-01-11T15:26:42;34.47;;;17.20;;
11854;SDS011;5987;53.140;8.904;2024-01-11T15:29:46;32.17;;;15.33;;
11854;SDS011;5987;53.140;8.904;2024-01-11T15:32:53;41.20;;;17.83;;
11854;SDS011;5987;53.140;8.904;2024-01-11T15:36:03;45.10;;;17.37;;
11854;SDS011;5987;53.140;8.904;2024-01-11T15:39:08;38.43;;;15.67;;
11854;SDS011;5987;53.140;8.904;2024-01-11T15:42:27;35.57;;;15.60;;
11854;SDS011;5987;53.140;8.904;2024-01-11T15:45:41;40.67;;;17.13;;
11854;SDS011;5987;53.140;8.904;2024-01-11T15:48:46;37.30;;;15.73;;
11854;SDS011;5987;53.140;8.904;2024-01-11T15:51:50;44.67;;;17.63;;
11854;SDS011;5987;53.140;8.904;2024-01-11T15:54:54;38.97;;;15.97;;
11854;SDS011;5987;53.140;8.904;2024-01-11T15:57:59;37.63;;;15.07;;
11854;SDS011;5987;53.140;8.904;2024-01-11T16:01:04;42.00;;;17.07;;
11854;SDS011;5987;53.140;8.904;2024-01-11T16:04:09;47.23;;;19.43;;
11854;SDS011;5987;53.140;8.904;2024-01-11T16:07:13;41.03;;;18.80;;
11854;SDS011;5987;53.140;8.904;2024-01-11T16:10:18;39.03;;;19.33;;
11854;SDS011;5987;53.140;8.904;2024-01-11T16:13:22;39.17;;;15.80;;
11854;SDS011;5987;53.140;8.904;2024-01-11T16:16:28;43.43;;;17.27;;
11854;SDS011;5987;53.140;8.904;2024-01-11T16:19:37;44.50;;;16.97;;
11854;SDS011;5987;53.140;8.904;2024-01-11T16:22:41;44.73;;;18.40;;
11854;SDS011;5987;53.140;8.904;2024-01-11T16:25:45;51.83;;;21.67;;
11854;SDS011;5987;53.140;8.904;2024-01-11T16:28:49;41.00;;;19.10;;
11854;SDS011;5987;53.140;8.904;2024-01-11T16:31:53;56.87;;;21.87;;
11854;SDS011;5987;53.140;8.904;2024-01-11T16:34:58;46.53;;;18.60;;
11854;SDS011;5987;53.140;8.904;2024-01-11T16:38:02;39.03;;;19.37;;
11854;SDS011;5987;53.140;8.904;2024-01-11T16:41:07;40.53;;;17.27;;
11854;SDS011;5987;53.140;8.904;2024-01-11T16:44:12;38.03;;;17.80;;
11854;SDS011;5987;53.140;8.904;2024-01-11T16:47:18;39.23;;;15.90;;
11854;SDS011;5987;53.140;8.904;2024-01-11T16:50:23;48.50;;;19.60;;
11854;SDS011;5987;53.140;8.904;2024-01-11T16:53:28;39.87;;;18.60;;
11854;SDS011;5987;53.140;8.904;2024-01-11T16:56:31;47.33;;;18.13;;
11854;SDS011;5987;53.140;8.904;2024-01-11T16:59:35;40.70;;;17.43;;
11854;SDS011;5987;53.140;8.904;2024-01-11T17:02:41;40.23;;;17.60;;
11854;SDS011;5987;53.140;8.904;2024-01-11T17:05:46;37.73;;;18.10;;
11854;SDS011;5987;53.140;8.904;2024-01-11T17:08:50;35.47;;;16.73;;
11854;SDS011;5987;53.140;8.904;2024-01-11T17:11:56;49.27;;;19.50;;
11854;SDS011;5987;53.140;8.904;2024-01-11T17:15:00;40.60;;;16.57;;
11854;SDS011;5987;53.140;8.904;2024-01-11T17:18:04;39.00;;;18.57;;
11854;SDS011;5987;53.140;8.904;2024-01-11T17:21:09;34.10;;;16.60;;
11854;SDS011;5987;53.140;8.904;2024-01-11T17:24:13;45.50;;;18.17;;
11854;SDS011;5987;53.140;8.904;2024-01-11T17:27:17;37.10;;;16.80;;
11854;SDS011;5987;53.140;8.904;2024-01-11T17:30:21;44.70;;;18.63;;
11854;SDS011;5987;53.140;8.904;2024-01-11T17:33:24;39.93;;;18.17;;
11854;SDS011;5987;53.140;8.904;2024-01-11T17:36:31;46.43;;;19.57;;
11854;SDS011;5987;53.140;8.904;2024-01-11T17:39:35;45.10;;;21.50;;
11854;SDS011;5987;53.140;8.904;2024-01-11T17:42:39;43.30;;;18.67;;
11854;SDS011;5987;53.140;8.904;2024-01-11T17:45:42;43.00;;;20.10;;
11854;SDS011;5987;53.140;8.904;2024-01-11T17:48:46;37.10;;;16.67;;
11854;SDS011;5987;53.140;8.904;2024-01-11T17:51:52;48.40;;;18.93;;
11854;SDS011;5987;53.140;8.904;2024-01-11T17:54:57;39.77;;;17.53;;
11854;SDS011;5987;53.140;8.904;2024-01-11T17:58:01;40.30;;;18.07;;
11854;SDS011;5987;53.140;8.904;2024-01-11T18:01:06;47.60;;;18.83;;
11854;SDS011;5987;53.140;8.904;2024-01-11T18:04:10;50.87;;;20.27;;
11854;SDS011;5987;53.140;8.904;2024-01-11T18:07:16;49.80;;;20.00;;
11854;SDS011;5987;53.140;8.904;2024-01-11T18:10:21;44.63;;;21.37;;
11854;SDS011;5987;53.140;8.904;2024-01-11T18:13:25;50.03;;;20.43;;
11854;SDS011;5987;53.140;8.904;2024-01-11T18:16:28;50.90;;;20.33;;
11854;SDS011;5987;53.140;8.904;2024-01-11T18:19:32;47.63;;;21.20;;